Time;durP1;ratioP1;P1;durP2;ratioP2;P2;SDS_P1;SDS_P2;PMS_P1;PMS_P2;Temp;Humidity;BMP_temperature;BMP_pressure;BME280_temperature;BME280_humidity;BME280_pressure;Samples;Min_cycle;Max_cycle;Signal;HPM_P1;HPM_P2
2023/05/13 00:01:27;;;;;;;10.85;9.27;;;17.40;91.80;;;;;;4992042;28;20022;-48
2023/05/13 00:04:13;;;;;;;10.95;9.68;;;17.30;92.00;;;;;;4996878;28;20037;-49
2023/05/13 00:06:59;;;;;;;10.65;9.65;;;17.30;92.60;;;;;;5014694;28;20533;-48
2023/05/13 00:09:45;;;;;;;10.18;9.18;;;17.40;92.30;;;;;;5029713;28;20029;-50
2023/05/13 00:12:31;;;;;;;10.98;9.63;;;17.40;92.20;;;;;;5010830;28;20026;-49
2023/05/13 00:15:17;;;;;;;11.63;10.50;;;17.40;92.40;;;;;;5010606;28;20030;-49
2023/05/13 00:18:03;;;;;;;10.88;9.77;;;17.40;92.30;;;;;;5009287;28;20497;-49
2023/05/13 00:20:49;;;;;;;10.90;9.90;;;17.40;92.50;;;;;;5009171;28;20030;-51
2023/05/13 00:23:35;;;;;;;11.10;10.05;;;17.50;92.70;;;;;;5025096;28;20030;-49
2023/05/13 00:26:21;;;;;;;11.90;10.70;;;17.50;92.70;;;;;;5019037;28;20049;-54
2023/05/13 00:29:07;;;;;;;12.05;10.25;;;17.50;92.90;;;;;;5012405;28;20062;-50
2023/05/13 00:31:53;;;;;;;12.23;10.85;;;17.40;93.00;;;;;;5012486;28;20466;-52
2023/05/13 00:34:38;;;;;;;12.52;11.18;;;17.40;93.20;;;;;;5016183;28;20030;-51
2023/05/13 00:37:24;;;;;;;13.98;10.07;;;17.30;93.20;;;;;;5010142;28;20472;-49
2023/05/13 00:40:20;;;;;;;12.90;11.30;;;17.30;93.30;;;;;;5010252;28;20125;-51
2023/05/13 00:43:06;;;;;;;13.02;10.98;;;17.30;93.40;;;;;;5010624;28;20402;-48
2023/05/13 00:45:52;;;;;;;13.65;11.70;;;17.30;93.40;;;;;;5008919;28;20066;-49
2023/05/13 00:48:38;;;;;;;12.32;11.23;;;17.20;93.50;;;;;;5010020;28;20434;-48
2023/05/13 00:51:24;;;;;;;13.30;12.05;;;17.20;93.40;;;;;;5010551;28;20034;-49
2023/05/13 00:54:10;;;;;;;14.23;12.63;;;17.10;93.40;;;;;;5008936;28;20037;-49
2023/05/13 00:56:58;;;;;;;15.85;13.50;;;17.10;93.70;;;;;;5008123;28;20022;-49
2023/05/13 00:59:44;;;;;;;14.82;13.25;;;16.90;94.10;;;;;;5008907;28;20041;-49
2023/05/13 01:02:38;;;;;;;15.73;13.88;;;16.80;94.90;;;;;;5010500;28;20064;-49
2023/05/13 01:05:41;;;;;;;14.25;12.90;;;16.80;95.50;;;;;;5009959;28;20041;-49
2023/05/13 01:08:40;;;;;;;13.85;12.45;;;16.70;95.80;;;;;;5009698;28;20072;-49
2023/05/13 01:11:40;;;;;;;13.80;12.40;;;16.60;96.00;;;;;;4991044;28;20057;-49
2023/05/13 01:14:31;;;;;;;13.57;12.20;;;16.70;96.10;;;;;;5008739;28;20025;-48
2023/05/13 01:17:26;;;;;;;13.82;12.52;;;16.50;96.50;;;;;;5007363;28;20113;-49
2023/05/13 01:20:12;;;;;;;12.98;11.68;;;16.50;97.00;;;;;;5008231;28;20018;-51
2023/05/13 01:22:58;;;;;;;13.73;11.68;;;16.40;97.30;;;;;;5003696;28;20041;-49
2023/05/13 01:25:44;;;;;;;12.65;11.45;;;16.40;97.50;;;;;;5010345;28;20026;-51
2023/05/13 01:28:30;;;;;;;13.18;11.85;;;16.40;97.70;;;;;;5009797;28;20057;-47
2023/05/13 01:31:19;;;;;;;14.32;11.57;;;16.40;97.90;;;;;;5010238;28;20026;-49
2023/05/13 01:34:09;;;;;;;12.52;11.40;;;16.40;97.90;;;;;;5009764;28;20080;-50
2023/05/13 01:36:55;;;;;;;13.52;11.95;;;16.40;98.00;;;;;;5008424;28;20038;-48
2023/05/13 01:39:41;;;;;;;13.20;11.90;;;16.40;98.10;;;;;;5009934;28;20037;-49
2023/05/13 01:42:28;;;;;;;13.43;12.10;;;16.40;98.40;;;;;;5010564;28;20657;-51
2023/05/13 01:45:14;;;;;;;13.68;12.25;;;16.30;98.60;;;;;;5013371;28;20133;-55
2023/05/13 01:48:00;;;;;;;13.43;12.13;;;16.30;98.70;;;;;;5017201;28;20049;-48
2023/05/13 01:50:46;;;;;;;14.30;12.85;;;16.20;99.30;;;;;;5013249;28;20034;-50
2023/05/13 01:53:32;;;;;;;14.80;13.35;;;16.10;99.80;;;;;;4994194;28;20089;-52
2023/05/13 01:56:18;;;;;;;14.83;13.33;;;16.00;99.40;;;;;;5015658;28;20913;-49
2023/05/13 01:59:04;;;;;;;14.02;12.60;;;15.90;99.30;;;;;;5010920;28;20030;-50
2023/05/13 02:01:50;;;;;;;13.50;12.23;;;15.70;99.80;;;;;;5016430;28;20099;-48
2023/05/13 02:04:36;;;;;;;13.63;12.20;;;15.60;99.90;;;;;;5032860;28;20022;-50
2023/05/13 02:07:22;;;;;;;14.10;12.63;;;15.60;99.90;;;;;;5032099;28;20140;-50
2023/05/13 02:10:09;;;;;;;13.90;12.45;;;15.70;99.90;;;;;;5027413;28;20072;-49
2023/05/13 02:12:55;;;;;;;15.02;12.27;;;15.70;99.90;;;;;;5013124;28;20058;-51
2023/05/13 02:15:42;;;;;;;15.80;11.60;;;15.70;99.90;;;;;;5013465;28;20036;-49
2023/05/13 02:18:28;;;;;;;13.95;12.20;;;15.70;99.90;;;;;;5012368;28;20410;-48
2023/05/13 02:21:14;;;;;;;13.82;12.30;;;15.70;99.90;;;;;;5012547;28;20022;-48
2023/05/13 02:24:00;;;;;;;14.77;12.32;;;15.80;99.90;;;;;;5013574;28;20029;-48
2023/05/13 02:26:46;;;;;;;13.77;12.38;;;15.90;99.90;;;;;;5012674;28;20041;-48
2023/05/13 02:29:33;;;;;;;13.88;12.40;;;15.80;99.90;;;;;;5013110;28;20034;-48
2023/05/13 02:32:18;;;;;;;13.25;12.05;;;15.80;99.90;;;;;;5012543;28;20041;-49
2023/05/13 02:35:05;;;;;;;13.57;12.18;;;15.80;99.90;;;;;;5013161;28;20029;-48
2023/05/13 02:37:50;;;;;;;13.32;12.00;;;15.90;99.90;;;;;;5010587;28;20034;-49
2023/05/13 02:40:36;;;;;;;14.18;12.88;;;15.90;99.90;;;;;;5012903;28;20044;-48
2023/05/13 02:43:23;;;;;;;13.38;12.07;;;15.90;99.90;;;;;;5012868;28;20022;-48
2023/05/13 02:46:09;;;;;;;13.40;11.52;;;15.90;99.90;;;;;;5012007;28;20159;-47
2023/05/13 02:48:55;;;;;;;14.05;12.45;;;15.80;99.90;;;;;;4993817;28;20058;-48
2023/05/13 02:51:41;;;;;;;14.73;12.10;;;15.80;99.90;;;;;;4991842;28;20031;-47
2023/05/13 02:54:27;;;;;;;13.75;12.32;;;15.80;99.90;;;;;;4992340;28;20121;-48
2023/05/13 02:57:13;;;;;;;14.40;12.10;;;15.90;99.90;;;;;;4992954;28;20027;-48
2023/05/13 02:59:59;;;;;;;13.35;12.02;;;15.90;99.90;;;;;;4994225;28;20172;-48
2023/05/13 03:02:45;;;;;;;12.98;11.73;;;15.90;99.90;;;;;;5001459;28;20188;-48
2023/05/13 03:05:31;;;;;;;13.05;11.60;;;15.90;99.90;;;;;;5020957;28;20053;-49
2023/05/13 03:08:17;;;;;;;13.30;12.10;;;15.80;99.90;;;;;;5014012;28;20033;-51
2023/05/13 03:11:03;;;;;;;12.65;11.38;;;15.70;99.90;;;;;;5013634;28;20026;-48
2023/05/13 03:13:49;;;;;;;13.43;12.20;;;15.70;99.90;;;;;;5011167;28;20026;-48
2023/05/13 03:16:35;;;;;;;13.82;12.57;;;15.70;99.90;;;;;;5011761;28;20465;-48
2023/05/13 03:19:22;;;;;;;13.70;12.40;;;15.60;99.90;;;;;;5010256;28;20032;-49
2023/05/13 03:22:08;;;;;;;14.57;11.80;;;15.50;99.90;;;;;;5011621;28;20029;-48
2023/05/13 03:24:54;;;;;;;13.85;12.38;;;15.50;99.90;;;;;;5010391;28;20014;-47
2023/05/13 03:27:40;;;;;;;14.40;12.98;;;15.40;99.90;;;;;;5010333;28;20117;-53
2023/05/13 03:30:26;;;;;;;13.43;12.07;;;15.40;99.90;;;;;;5011284;28;20029;-53
2023/05/13 03:33:12;;;;;;;14.73;13.23;;;15.30;99.90;;;;;;5010771;28;20040;-49
2023/05/13 03:35:58;;;;;;;14.30;12.77;;;15.30;99.90;;;;;;5011871;28;20402;-49
2023/05/13 03:38:44;;;;;;;13.48;12.18;;;15.30;99.90;;;;;;5011811;28;20034;-50
2023/05/13 03:41:30;;;;;;;14.27;12.32;;;15.30;99.90;;;;;;5010129;28;20083;-49
2023/05/13 03:44:16;;;;;;;14.07;12.55;;;15.30;99.90;;;;;;5011625;28;20068;-50
2023/05/13 03:47:02;;;;;;;13.75;12.35;;;15.30;99.90;;;;;;5010361;28;20064;-48
2023/05/13 03:49:48;;;;;;;15.32;13.18;;;15.30;99.90;;;;;;5011348;28;20022;-49
2023/05/13 03:52:34;;;;;;;18.23;12.68;;;15.30;99.90;;;;;;5002851;28;20034;-48
2023/05/13 03:55:21;;;;;;;13.23;11.90;;;15.40;99.90;;;;;;5011624;28;20037;-51
2023/05/13 03:58:12;;;;;;;13.30;11.75;;;15.50;99.90;;;;;;5009657;28;20033;-50
2023/05/13 04:00:58;;;;;;;14.27;12.60;;;15.50;99.90;;;;;;5010843;28;20018;-50
2023/05/13 04:03:45;;;;;;;14.10;12.70;;;15.50;99.90;;;;;;5010479;28;20030;-50
2023/05/13 04:06:31;;;;;;;14.18;12.73;;;15.40;99.90;;;;;;5007704;28;20101;-48
2023/05/13 04:09:17;;;;;;;14.25;12.70;;;15.40;99.90;;;;;;5018087;28;20099;-48
2023/05/13 04:12:03;;;;;;;15.02;13.57;;;15.20;99.90;;;;;;5023985;28;20033;-51
2023/05/13 04:14:49;;;;;;;14.27;12.88;;;15.20;99.90;;;;;;5026184;28;20030;-51
2023/05/13 04:17:35;;;;;;;16.50;13.65;;;15.10;99.90;;;;;;5013853;28;20030;-48
2023/05/13 04:20:21;;;;;;;15.85;13.60;;;14.80;99.90;;;;;;5011163;28;20036;-51
2023/05/13 04:23:07;;;;;;;14.15;12.70;;;14.60;99.90;;;;;;5013352;28;20037;-53
2023/05/13 04:25:53;;;;;;;15.07;12.45;;;14.60;99.90;;;;;;5021539;28;20037;-51
2023/05/13 04:28:39;;;;;;;14.70;13.07;;;14.70;99.90;;;;;;5015701;28;20026;-48
2023/05/13 04:31:24;;;;;;;16.95;13.02;;;14.80;99.90;;;;;;5010810;28;20141;-50
2023/05/13 04:34:10;;;;;;;17.05;12.77;;;14.80;99.90;;;;;;5011044;28;20026;-50
2023/05/13 04:36:56;;;;;;;16.17;12.07;;;15.00;99.90;;;;;;5010102;28;20602;-47
2023/05/13 04:39:45;;;;;;;13.45;12.15;;;15.10;99.90;;;;;;5010576;28;20087;-51
2023/05/13 04:42:31;;;;;;;14.52;12.07;;;15.20;99.90;;;;;;5010379;28;20037;-49
2023/05/13 04:45:17;;;;;;;14.50;13.13;;;15.30;99.90;;;;;;5011254;28;20026;-51
2023/05/13 04:48:03;;;;;;;14.32;12.93;;;15.50;99.90;;;;;;5010125;28;20030;-52
2023/05/13 04:50:49;;;;;;;15.30;13.80;;;15.50;99.90;;;;;;5008945;28;20026;-50
2023/05/13 04:53:36;;;;;;;14.05;12.60;;;15.60;99.90;;;;;;5010854;28;20456;-51
2023/05/13 04:56:25;;;;;;;14.80;12.80;;;15.60;99.90;;;;;;5011554;28;20029;-50
2023/05/13 04:59:11;;;;;;;13.35;11.73;;;15.50;99.90;;;;;;5010130;28;20034;-53
2023/05/13 05:01:57;;;;;;;13.10;11.68;;;15.40;99.90;;;;;;5009264;28;20030;-51
2023/05/13 05:04:44;;;;;;;15.18;12.13;;;15.50;99.90;;;;;;5010631;28;20066;-53
2023/05/13 05:07:30;;;;;;;13.57;12.15;;;15.50;99.90;;;;;;5009560;28;20033;-49
2023/05/13 05:10:16;;;;;;;18.08;14.77;;;15.60;99.90;;;;;;5011071;28;20085;-52
2023/05/13 05:13:02;;;;;;;16.10;13.52;;;15.50;99.90;;;;;;5010900;28;20034;-50
2023/05/13 05:15:48;;;;;;;14.38;12.75;;;15.30;99.90;;;;;;5010738;28;20108;-49
2023/05/13 05:18:39;;;;;;;16.42;14.82;;;15.30;99.90;;;;;;5009022;28;20030;-53
2023/05/13 05:21:25;;;;;;;15.30;13.77;;;15.40;99.90;;;;;;5009335;28;20049;-50
2023/05/13 05:24:11;;;;;;;14.68;13.27;;;15.40;99.90;;;;;;5014437;28;20662;-51
2023/05/13 05:26:57;;;;;;;14.88;13.38;;;15.30;99.90;;;;;;5013333;28;20077;-53
2023/05/13 05:29:43;;;;;;;19.75;17.35;;;15.30;99.90;;;;;;5014027;28;20490;-52
2023/05/13 05:32:29;;;;;;;18.63;16.70;;;15.30;99.90;;;;;;5013307;28;20041;-50
2023/05/13 05:35:18;;;;;;;15.75;13.57;;;15.20;99.90;;;;;;5014698;28;20087;-51
2023/05/13 05:38:05;;;;;;;15.30;13.63;;;15.10;99.90;;;;;;5013526;28;20409;-51
2023/05/13 05:40:52;;;;;;;15.93;14.30;;;15.20;99.90;;;;;;5013894;28;20041;-53
2023/05/13 05:43:38;;;;;;;16.42;14.73;;;15.30;99.90;;;;;;5013423;28;20025;-51
2023/05/13 05:46:24;;;;;;;17.02;15.32;;;15.40;99.90;;;;;;5000678;28;20026;-52
2023/05/13 05:49:10;;;;;;;17.50;14.52;;;15.50;99.90;;;;;;5012760;28;20033;-53
2023/05/13 05:51:56;;;;;;;15.65;14.00;;;15.60;99.90;;;;;;5014240;28;20898;-53
2023/05/13 05:54:41;;;;;;;16.25;14.57;;;15.70;99.90;;;;;;5014042;28;20491;-48
2023/05/13 05:57:27;;;;;;;16.45;14.73;;;15.80;99.90;;;;;;5013238;28;20041;-53
2023/05/13 06:00:14;;;;;;;17.10;15.30;;;15.80;99.90;;;;;;5013585;28;20109;-48
2023/05/13 06:03:00;;;;;;;16.77;14.30;;;16.00;99.90;;;;;;5013629;28;20022;-54
2023/05/13 06:05:46;;;;;;;15.95;14.45;;;16.20;99.90;;;;;;5014505;28;20041;-53
2023/05/13 06:08:32;;;;;;;18.10;16.17;;;16.40;99.90;;;;;;5012719;28;20030;-52
2023/05/13 06:11:18;;;;;;;16.67;15.02;;;16.60;99.30;;;;;;5012717;28;20026;-52
2023/05/13 06:14:03;;;;;;;20.05;15.85;;;16.50;99.30;;;;;;5014053;28;20033;-53
2023/05/13 06:16:49;;;;;;;16.98;14.98;;;16.60;99.40;;;;;;5012827;28;20037;-53
2023/05/13 06:19:35;;;;;;;16.77;15.07;;;16.60;99.20;;;;;;5013976;28;20372;-53
2023/05/13 06:22:21;;;;;;;16.65;15.02;;;16.50;99.20;;;;;;5012793;28;20026;-53
2023/05/13 06:25:08;;;;;;;20.05;14.98;;;16.50;99.20;;;;;;5013123;28;20122;-57
2023/05/13 06:27:54;;;;;;;19.38;17.42;;;16.50;99.30;;;;;;5011635;28;20062;-50
2023/05/13 06:30:39;;;;;;;19.27;16.90;;;16.60;99.20;;;;;;5014067;28;20108;-54
2023/05/13 06:33:26;;;;;;;20.20;18.08;;;16.80;98.90;;;;;;5012926;28;20494;-55
2023/05/13 06:36:12;;;;;;;17.25;15.45;;;16.90;98.50;;;;;;5011868;28;20026;-52
2023/05/13 06:38:58;;;;;;;15.73;14.23;;;16.80;98.40;;;;;;5012539;28;20030;-53
2023/05/13 06:41:44;;;;;;;16.65;14.35;;;16.80;98.70;;;;;;5012634;28;20399;-51
2023/05/13 06:44:30;;;;;;;15.70;14.23;;;16.80;98.50;;;;;;5013618;28;20026;-51
2023/05/13 06:47:16;;;;;;;14.75;13.20;;;17.00;98.50;;;;;;5012550;28;20429;-50
2023/05/13 06:50:02;;;;;;;13.45;12.15;;;17.20;98.40;;;;;;5013445;28;20038;-51
2023/05/13 06:52:48;;;;;;;14.50;12.88;;;17.40;98.10;;;;;;5014499;28;20261;-51
2023/05/13 06:55:40;;;;;;;15.55;13.93;;;17.50;97.80;;;;;;5018191;28;20053;-51
2023/05/13 06:58:26;;;;;;;14.60;13.30;;;17.60;98.00;;;;;;5013071;28;20041;-53
2023/05/13 07:01:12;;;;;;;16.23;14.57;;;17.50;97.60;;;;;;5013718;28;20251;-54
2023/05/13 07:03:58;;;;;;;28.83;22.85;;;17.40;98.00;;;;;;5013938;28;20036;-53
2023/05/13 07:06:44;;;;;;;34.35;26.10;;;17.40;98.00;;;;;;5013872;28;20028;-53
2023/05/13 07:09:31;;;;;;;30.10;23.38;;;17.60;98.00;;;;;;5012941;28;20030;-54
2023/05/13 07:12:17;;;;;;;16.17;14.27;;;17.70;97.60;;;;;;5012091;28;20565;-53
2023/05/13 07:15:04;;;;;;;14.75;13.25;;;17.70;97.50;;;;;;5012490;28;20033;-50
2023/05/13 07:17:50;;;;;;;13.85;12.35;;;17.50;97.90;;;;;;4991546;28;20030;-50
2023/05/13 07:20:36;;;;;;;13.60;12.23;;;17.40;98.10;;;;;;4999288;28;20030;-50
2023/05/13 07:23:23;;;;;;;14.15;12.65;;;17.50;97.90;;;;;;5011947;28;20112;-48
2023/05/13 07:26:09;;;;;;;13.27;11.60;;;17.40;98.20;;;;;;5012348;28;20026;-48
2023/05/13 07:28:55;;;;;;;11.70;10.65;;;17.50;98.20;;;;;;5012943;28;20080;-49
2023/05/13 07:31:41;;;;;;;12.90;11.70;;;17.70;98.00;;;;;;5012823;28;20589;-49
2023/05/13 07:34:27;;;;;;;52.45;35.13;;;18.00;97.70;;;;;;5011095;28;20037;-51
2023/05/13 07:37:13;;;;;;;15.70;13.00;;;18.10;97.80;;;;;;4993722;28;20050;-49
2023/05/13 07:39:59;;;;;;;13.45;10.77;;;18.20;97.50;;;;;;4992755;28;20476;-49
2023/05/13 07:42:45;;;;;;;11.23;10.05;;;18.10;97.20;;;;;;5002458;28;20050;-50
2023/05/13 07:45:31;;;;;;;11.20;10.10;;;18.10;96.60;;;;;;5010750;28;20080;-48
2023/05/13 07:48:18;;;;;;;12.20;10.13;;;18.10;96.50;;;;;;5011756;28;20053;-48
2023/05/13 07:51:04;;;;;;;11.45;9.75;;;18.10;96.50;;;;;;5011777;28;20034;-52
2023/05/13 07:53:51;;;;;;;11.50;10.05;;;18.20;96.20;;;;;;5011146;28;20421;-50
2023/05/13 07:56:38;;;;;;;11.00;8.98;;;18.30;96.00;;;;;;5013942;28;20026;-50
2023/05/13 07:59:23;;;;;;;10.45;8.88;;;18.40;96.00;;;;;;5021170;28;20057;-54
2023/05/13 08:02:10;;;;;;;9.77;8.77;;;18.50;95.90;;;;;;5017924;28;20569;-48
2023/05/13 08:04:56;;;;;;;9.98;8.98;;;18.50;95.70;;;;;;5011556;28;20089;-49
2023/05/13 08:07:42;;;;;;;8.43;7.60;;;18.60;95.80;;;;;;5011144;28;20030;-53
2023/05/13 08:10:29;;;;;;;12.23;10.50;;;18.70;95.90;;;;;;5011079;28;20038;-49
2023/05/13 08:13:15;;;;;;;12.32;11.10;;;18.70;96.10;;;;;;5011337;28;20368;-49
2023/05/13 08:16:02;;;;;;;11.02;10.00;;;18.60;96.10;;;;;;5011744;28;20026;-50
2023/05/13 08:18:48;;;;;;;11.80;10.50;;;18.50;96.10;;;;;;5011394;28;20040;-53
2023/05/13 08:21:34;;;;;;;12.18;10.30;;;18.60;96.10;;;;;;5011214;28;20033;-51
2023/05/13 08:24:20;;;;;;;11.00;9.77;;;18.40;96.30;;;;;;5011240;28;20022;-53
2023/05/13 08:27:05;;;;;;;11.70;10.18;;;18.60;96.30;;;;;;5010073;28;20119;-50
2023/05/13 08:29:51;;;;;;;9.75;8.85;;;18.60;96.00;;;;;;5010580;28;20092;-52
2023/05/13 08:32:37;;;;;;;10.82;9.60;;;18.80;95.80;;;;;;5008148;28;20095;-50
2023/05/13 08:35:23;;;;;;;11.55;10.02;;;18.90;95.90;;;;;;5009399;28;20045;-51
2023/05/13 08:38:09;;;;;;;10.23;8.35;;;19.00;94.80;;;;;;5010922;28;20442;-51
2023/05/13 08:40:56;;;;;;;10.77;9.77;;;19.10;94.70;;;;;;5010053;28;20061;-51
2023/05/13 08:43:42;;;;;;;9.80;8.80;;;19.10;94.40;;;;;;5010903;28;20034;-49
2023/05/13 08:46:32;;;;;;;10.30;9.18;;;19.20;94.50;;;;;;5011113;28;20038;-48
2023/05/13 08:49:19;;;;;;;12.25;10.27;;;19.30;95.10;;;;;;5011580;28;20030;-50
2023/05/13 08:52:05;;;;;;;11.55;10.23;;;19.30;94.60;;;;;;5011871;28;20056;-50
2023/05/13 08:54:52;;;;;;;12.07;10.00;;;19.30;94.70;;;;;;5011537;28;20029;-52
2023/05/13 08:57:38;;;;;;;10.77;9.65;;;19.40;94.70;;;;;;5013960;28;20033;-49
2023/05/13 09:00:24;;;;;;;10.13;9.23;;;19.30;94.60;;;;;;5014161;28;20040;-50
2023/05/13 09:03:11;;;;;;;10.02;9.10;;;19.40;94.40;;;;;;5014109;28;20030;-49
2023/05/13 09:06:02;;;;;;;12.13;9.15;;;19.50;94.50;;;;;;5013767;28;20025;-50
2023/05/13 09:08:48;;;;;;;12.07;10.82;;;19.60;94.50;;;;;;5014301;28;20445;-50
2023/05/13 09:11:34;;;;;;;11.75;10.10;;;19.70;94.40;;;;;;5014175;28;20022;-51
2023/05/13 09:14:20;;;;;;;11.35;10.23;;;19.80;93.80;;;;;;5013762;28;20033;-51
2023/05/13 09:17:07;;;;;;;12.35;10.63;;;19.80;93.50;;;;;;5007926;28;20089;-51
2023/05/13 09:19:53;;;;;;;10.80;9.80;;;19.50;93.80;;;;;;5004192;28;20037;-48
2023/05/13 09:22:49;;;;;;;8.82;7.65;;;19.50;93.60;;;;;;4997275;28;20026;-51
2023/05/13 09:25:41;;;;;;;10.10;7.47;;;19.60;92.30;;;;;;5001778;28;20030;-48
2023/05/13 09:28:27;;;;;;;8.43;7.45;;;19.40;91.40;;;;;;5011627;28;20144;-48
2023/05/13 09:31:31;;;;;;;8.82;7.32;;;19.50;91.50;;;;;;5034442;28;20390;-50
2023/05/13 09:34:29;;;;;;;9.07;8.15;;;19.80;91.60;;;;;;5016400;28;20076;-49
2023/05/13 09:37:17;;;;;;;8.88;7.72;;;20.00;91.10;;;;;;5013946;28;20030;-48
2023/05/13 09:40:04;;;;;;;9.20;7.22;;;19.90;91.00;;;;;;5008271;28;20399;-58
2023/05/13 09:42:57;;;;;;;8.77;6.80;;;20.10;91.30;;;;;;5016016;28;20018;-52
2023/05/13 09:45:43;;;;;;;8.55;7.30;;;20.40;90.50;;;;;;5019409;28;20057;-50
2023/05/13 09:48:32;;;;;;;11.73;8.02;;;20.50;90.90;;;;;;5018305;28;20490;-51
2023/05/13 09:51:23;;;;;;;9.57;8.32;;;20.60;90.10;;;;;;5015076;28;20030;-57
2023/05/13 09:54:09;;;;;;;10.73;8.45;;;20.40;90.10;;;;;;5012956;28;20486;-54
2023/05/13 09:57:01;;;;;;;9.88;8.55;;;20.40;90.50;;;;;;5019261;28;20022;-51
2023/05/13 09:59:47;;;;;;;10.70;7.63;;;20.50;90.10;;;;;;5016071;28;20462;-53
2023/05/13 10:02:33;;;;;;;9.40;7.63;;;20.60;90.00;;;;;;5012918;28;20037;-52
2023/05/13 10:05:21;;;;;;;8.52;7.60;;;20.50;88.70;;;;;;5012242;28;20080;-55
2023/05/13 10:08:12;;;;;;;9.57;7.18;;;20.50;88.80;;;;;;5011774;28;20569;-55
2023/05/13 10:10:59;;;;;;;8.32;7.25;;;20.70;89.10;;;;;;5014036;28;20563;-57
2023/05/13 10:13:49;;;;;;;7.50;6.90;;;20.90;88.10;;;;;;5014161;28;20463;-53
2023/05/13 10:16:35;;;;;;;8.82;7.05;;;21.00;87.70;;;;;;5013488;28;20092;-55
2023/05/13 10:19:23;;;;;;;10.05;7.13;;;21.30;87.10;;;;;;5014302;28;20053;-54
2023/05/13 10:22:10;;;;;;;8.65;6.47;;;21.50;84.90;;;;;;5013413;28;20109;-55
2023/05/13 10:24:58;;;;;;;6.75;6.07;;;21.50;84.90;;;;;;5013538;28;20455;-61
2023/05/13 10:27:44;;;;;;;7.50;6.07;;;21.70;83.50;;;;;;5012797;28;20097;-53
2023/05/13 10:30:31;;;;;;;9.13;5.82;;;21.90;82.20;;;;;;5012485;28;20514;-55
2023/05/13 10:33:17;;;;;;;9.57;5.80;;;22.00;81.90;;;;;;5012897;28;20498;-51
2023/05/13 10:36:12;;;;;;;8.40;5.65;;;22.00;79.50;;;;;;5012381;28;20038;-56
2023/05/13 10:39:17;;;;;;;;;;;21.80;78.70;;;;;;5012985;28;20037;-56
2023/05/13 10:42:11;;;;;;;9.27;5.60;;;21.80;80.70;;;;;;5013049;28;20011;-54
2023/05/13 10:44:58;;;;;;;7.57;6.43;;;22.10;80.80;;;;;;5012214;28;20394;-55
2023/05/13 10:47:50;;;;;;;6.70;6.10;;;22.20;80.00;;;;;;5012025;28;20121;-55
2023/05/13 10:50:40;;;;;;;6.97;6.28;;;22.00;78.90;;;;;;5012841;28;20030;-53
2023/05/13 10:53:36;;;;;;;6.32;5.60;;;22.10;79.10;;;;;;5012946;28;20030;-57
2023/05/13 10:56:25;;;;;;;12.98;6.88;;;22.00;79.40;;;;;;5011397;28;20040;-57
2023/05/13 10:59:12;;;;;;;6.72;5.80;;;21.80;78.50;;;;;;5012208;28;20042;-52
2023/05/13 11:02:18;;;;;;;11.35;7.30;;;21.90;78.00;;;;;;4992168;28;20513;-54
2023/05/13 11:05:05;;;;;;;8.10;5.70;;;22.00;78.20;;;;;;4992627;28;20027;-53
2023/05/13 11:07:57;;;;;;;12.75;5.97;;;22.30;77.50;;;;;;4992617;28;20026;-52
2023/05/13 11:10:53;;;;;;;8.10;5.70;;;22.40;76.00;;;;;;4993066;28;20402;-55
2023/05/13 11:13:39;;;;;;;6.65;5.55;;;22.10;75.90;;;;;;4992433;28;20112;-55
2023/05/13 11:16:25;;;;;;;9.85;6.15;;;22.20;76.50;;;;;;4991771;28;20038;-54
2023/05/13 11:19:21;;;;;;;9.35;5.55;;;22.50;76.10;;;;;;5009364;28;20487;-53
2023/05/13 11:22:26;;;;;;;11.60;5.55;;;22.30;73.50;;;;;;5009663;28;20022;-52
2023/05/13 11:25:12;;;;;;;;;;;22.30;74.90;;;;;;5010835;28;20052;-54
2023/05/13 11:27:58;;;;;;;8.88;5.60;;;22.30;74.40;;;;;;5011107;28;19909;-54
2023/05/13 11:30:56;;;;;;;9.13;5.50;;;22.50;74.20;;;;;;5009580;28;20100;-54
2023/05/13 11:34:04;;;;;;;8.88;5.43;;;22.30;72.90;;;;;;5006903;28;20121;-49
2023/05/13 11:37:09;;;;;;;8.02;4.82;;;21.90;73.40;;;;;;5009314;28;20060;-51
2023/05/13 11:39:56;;;;;;;5.82;5.03;;;21.80;74.30;;;;;;5004597;28;20061;-50
2023/05/13 11:42:43;;;;;;;5.93;5.03;;;22.00;73.80;;;;;;5011383;28;20037;-49
2023/05/13 11:45:30;;;;;;;7.13;5.05;;;22.30;73.30;;;;;;5011923;28;20030;-53
2023/05/13 11:48:20;;;;;;;8.20;5.20;;;22.10;72.50;;;;;;5010531;28;20038;-57
2023/05/13 11:51:06;;;;;;;9.25;5.15;;;21.90;72.70;;;;;;5011267;28;20095;-47
2023/05/13 11:53:59;;;;;;;6.40;5.00;;;22.10;72.40;;;;;;5011211;28;20064;-54
2023/05/13 11:56:45;;;;;;;6.72;6.03;;;22.40;71.40;;;;;;5006817;28;20084;-48
2023/05/13 11:59:31;;;;;;;7.93;6.30;;;22.40;75.80;;;;;;4992214;28;20045;-52
2023/05/13 12:02:22;;;;;;;9.23;6.15;;;22.00;74.60;;;;;;4997054;28;20030;-51
2023/05/13 12:05:10;;;;;;;10.20;6.40;;;21.60;75.60;;;;;;5007297;28;20033;-56
2023/05/13 12:07:56;;;;;;;8.02;5.57;;;21.30;76.80;;;;;;5010050;28;20121;-55
2023/05/13 12:10:43;;;;;;;6.80;5.22;;;21.40;76.10;;;;;;5011273;28;20032;-56
2023/05/13 12:13:29;;;;;;;7.57;5.38;;;21.40;76.10;;;;;;5011441;28;20380;-53
2023/05/13 12:16:15;;;;;;;7.10;5.50;;;21.60;75.60;;;;;;5010981;28;20025;-52
2023/05/13 12:19:05;;;;;;;8.77;5.97;;;21.90;75.80;;;;;;5008805;28;20113;-50
2023/05/13 12:21:51;;;;;;;6.55;5.95;;;21.90;76.40;;;;;;5002895;28;20033;-51
2023/05/13 12:24:37;;;;;;;6.93;4.97;;;22.00;76.50;;;;;;5009952;28;20026;-49
2023/05/13 12:27:23;;;;;;;8.95;5.20;;;22.40;75.70;;;;;;5008937;28;20037;-47
2023/05/13 12:30:14;;;;;;;7.10;5.60;;;22.70;71.30;;;;;;5010699;28;20421;-50
2023/05/13 12:33:00;;;;;;;7.05;5.25;;;22.70;70.90;;;;;;5010195;28;20037;-49
2023/05/13 12:35:48;;;;;;;7.45;5.70;;;22.80;72.60;;;;;;5009773;28;20112;-52
2023/05/13 12:38:34;;;;;;;6.50;4.80;;;23.00;73.60;;;;;;5009055;28;20029;-50
2023/05/13 12:41:21;;;;;;;6.57;5.47;;;23.10;71.40;;;;;;5008831;28;20374;-50
2023/05/13 12:44:13;;;;;;;5.32;4.78;;;23.00;72.30;;;;;;5006241;28;20081;-52
2023/05/13 12:47:00;;;;;;;5.88;5.28;;;22.90;72.60;;;;;;5006136;28;20395;-55
2023/05/13 12:49:51;;;;;;;5.75;4.90;;;23.30;72.70;;;;;;5016056;28;20032;-48
2023/05/13 12:52:37;;;;;;;8.75;5.32;;;23.70;69.40;;;;;;5024197;28;20029;-49
2023/05/13 12:55:23;;;;;;;7.85;5.35;;;23.80;70.90;;;;;;5019763;28;20044;-50
2023/05/13 12:58:12;;;;;;;5.95;4.80;;;23.90;69.30;;;;;;5004755;28;20117;-52
2023/05/13 13:00:58;;;;;;;6.53;4.50;;;24.00;67.30;;;;;;5019439;28;20376;-53
2023/05/13 13:03:44;;;;;;;7.10;5.15;;;24.20;67.80;;;;;;5011496;28;20623;-52
2023/05/13 13:06:31;;;;;;;6.78;4.90;;;24.40;65.70;;;;;;5013983;28;20032;-52
2023/05/13 13:09:17;;;;;;;7.55;4.68;;;24.40;63.60;;;;;;5023050;28;20113;-53
2023/05/13 13:12:03;;;;;;;5.75;4.35;;;24.50;64.30;;;;;;5003092;28;20117;-49
2023/05/13 13:14:49;;;;;;;5.20;4.47;;;24.50;64.10;;;;;;5011374;28;20026;-52
2023/05/13 13:17:35;;;;;;;7.40;4.85;;;24.40;64.00;;;;;;5005720;28;20038;-50
2023/05/13 13:20:21;;;;;;;8.57;5.35;;;24.20;63.90;;;;;;5009705;28;20084;-53
2023/05/13 13:23:08;;;;;;;8.02;5.30;;;24.20;64.70;;;;;;5009691;28;20513;-50
2023/05/13 13:25:57;;;;;;;6.93;4.63;;;24.20;66.60;;;;;;5007810;28;20026;-50
2023/05/13 13:28:43;;;;;;;6.18;4.70;;;23.40;67.70;;;;;;5004685;28;20112;-55
2023/05/13 13:31:29;;;;;;;6.18;4.55;;;23.00;67.80;;;;;;5009661;28;20446;-50
2023/05/13 13:34:15;;;;;;;12.05;4.95;;;22.80;67.50;;;;;;5012528;28;20586;-49
2023/05/13 13:37:01;;;;;;;5.32;4.82;;;22.90;68.50;;;;;;5011944;28;20037;-49
2023/05/13 13:39:46;;;;;;;7.93;5.22;;;22.50;69.00;;;;;;5011725;28;20029;-51
2023/05/13 13:42:32;;;;;;;8.63;5.05;;;22.20;69.00;;;;;;5015194;28;20455;-53
2023/05/13 13:45:22;;;;;;;6.78;4.90;;;22.20;69.80;;;;;;5016233;28;20450;-50
2023/05/13 13:48:08;;;;;;;9.23;5.20;;;22.40;70.00;;;;;;5016007;28;20403;-51
2023/05/13 13:50:55;;;;;;;7.18;5.15;;;22.60;69.70;;;;;;5016925;28;20018;-52
2023/05/13 13:53:41;;;;;;;6.22;5.25;;;23.20;70.10;;;;;;5021275;28;20789;-52
2023/05/13 13:56:27;;;;;;;9.32;5.22;;;23.80;69.20;;;;;;5022996;28;20482;-53
2023/05/13 13:59:13;;;;;;;7.97;5.43;;;24.10;68.70;;;;;;5019409;28;20493;-53
2023/05/13 14:01:59;;;;;;;5.47;4.97;;;24.00;68.90;;;;;;5016239;28;20022;-49
2023/05/13 14:04:45;;;;;;;6.10;4.93;;;23.70;68.60;;;;;;5019949;28;20022;-54
2023/05/13 14:07:31;;;;;;;7.80;5.15;;;23.40;68.90;;;;;;5017898;28;20030;-49
2023/05/13 14:10:17;;;;;;;6.10;5.07;;;23.20;69.50;;;;;;5021210;28;20034;-51
2023/05/13 14:13:03;;;;;;;5.28;4.50;;;23.00;70.00;;;;;;5013286;28;20528;-55
2023/05/13 14:15:49;;;;;;;6.47;5.38;;;22.70;68.80;;;;;;5017066;28;20057;-53
2023/05/13 14:18:35;;;;;;;10.18;5.22;;;22.30;69.80;;;;;;5020415;28;20105;-55